עמוד ראשי
METAR-TAF:

METAR-TAF

שדות תעופה :

Gaines County Airport

Seminole, טקסס, ארצות הברית

קו רוחב: 32-40-31N, קו אורך: 102-39-09W, גובה: 1010מטר

תצפית מזג אוויר נוכחית

הדו"ח נערך לפני 40דקות, בשעה 02:15 UTC
רוח 6קשר מכיוון מזרח/דרום-מזרח
טמפרטורת 29 צלסיוס
לחות 37%
לחץ 1024 hPa
ראות: 16.1קילומטר
שמיים נקיים

METAR: KGNC 250215Z AUTO 12006KT 10SM CLR 29/13 A3023 RMK AO2 T02900133

זמן: 21:55 (02:55 UTC)


TAF: חסר

תצפיות ותחזיות מזג אוויר לגבי יותר מ- 4,000 שדות תעופה ברחבי העולם. דוחות METAR ו- TAF.

התחנות הזמינות מסומנות בנקודות צהובות ואדומות על גבי המפה.

העבר את העכבר לנקודה הצבעונית על מנת לראות את שם התחנה.

לאחר מכן, לחץ כדי לראות את תוכן ואת תחזיות מזג האוויר.

כדי לשנות את המפה: לחץ על הכפתורים הירוקים עם הפלוס השחור כדי להתקרב; על הכפתור הירוק עם המקף כדי להתרחק; או בחיצים הירוקים למפות סמוכות.


METAR-TAF: